MA52 weather

Sids Airport
Maynard, Massachusetts, United States

Public forecast

Using degrees Fahrenheit for public forecast. Weather courtesy of forecast.io.

METAR (pilot weather report)

Closest report is Laurence G Hanscom Field, 8.3 nm (15.3 km) ENE. Retrieved 2019/07/22 16:56 UTC (26 minutes ago):

KBED 221656Z 04010KT 10SM -RA BKN080 BKN100 27/19 A2986 RMK AO2 RAB42 SLP123 P0000 T02670194

TAF (pilot weather forecast)

Closest forecast is Laurence G Hanscom Field, 8.3 nm (15.3 km) ENE. Retrieved 2019/07/22 12:24 UTC (5 hours ago):

TAF KBED 221120Z 2212/2312 VRB03KT P6SM FEW110 SCT250 FM221700 08006KT P6SM VCSH BKN060 FM222000 08007KT 6SM SHRA OVC025 FM222300 05006KT 3SM SHRA OVC008 FM230500 01005KT 3SM -SHRA BR OVC008